Time;durP1;ratioP1;P1;durP2;ratioP2;P2;SDS_P1;SDS_P2;PMS_P1;PMS_P2;Temp;Humidity;BMP_temperature;BMP_pressure;BME280_temperature;BME280_humidity;BME280_pressure;Samples;Min_cycle;Max_cycle;Signal;HPM_P1;HPM_P2
2021/12/26 00:00:05;;;;;;;11.43;6.00;;;;;;;;;;5035419;28;20041;-78
2021/12/26 00:02:52;;;;;;;9.73;4.82;;;;;;;;;;5041631;28;20037;-79
2021/12/26 00:05:37;;;;;;;5.07;2.85;;;;;;;;;;5034339;28;20050;-79
2021/12/26 00:08:23;;;;;;;8.38;4.57;;;;;;;;;;5035009;28;20480;-79
2021/12/26 00:11:09;;;;;;;9.13;4.82;;;;;;;;;;5034127;28;20391;-78
2021/12/26 00:13:55;;;;;;;17.35;7.88;;;;;;;;;;5034658;28;20038;-79
2021/12/26 00:16:42;;;;;;;16.00;5.75;;;;;;;;;;5035389;28;20042;-78
2021/12/26 00:19:27;;;;;;;10.32;5.30;;;;;;;;;;5034145;28;20041;-79
2021/12/26 00:22:13;;;;;;;3.85;2.75;;;;;;;;;;5034002;28;20042;-78
2021/12/26 00:24:58;;;;;;;11.50;5.32;;;;;;;;;;5034633;28;20042;-79
2021/12/26 00:27:45;;;;;;;6.18;4.15;;;;;;;;;;5034605;28;20037;-78
2021/12/26 00:30:30;;;;;;;4.03;2.90;;;;;;;;;;5035118;28;20503;-79
2021/12/26 00:33:17;;;;;;;4.50;3.17;;;;;;;;;;5033947;28;20049;-80
2021/12/26 00:36:05;;;;;;;6.70;3.67;;;;;;;;;;5040568;28;20045;-79
2021/12/26 00:38:50;;;;;;;6.93;3.67;;;;;;;;;;5033248;28;20049;-79
2021/12/26 00:41:39;;;;;;;7.72;3.83;;;;;;;;;;5031912;28;20053;-79
2021/12/26 00:44:24;;;;;;;6.63;3.90;;;;;;;;;;5037994;28;20049;-78
2021/12/26 00:47:11;;;;;;;3.95;2.85;;;;;;;;;;5032133;28;20399;-79
2021/12/26 00:49:57;;;;;;;3.47;2.63;;;;;;;;;;5038849;28;20049;-79
2021/12/26 00:52:42;;;;;;;5.03;3.33;;;;;;;;;;5032916;28;20307;-79
2021/12/26 00:55:28;;;;;;;6.40;3.85;;;;;;;;;;5050636;28;20406;-79
2021/12/26 00:58:13;;;;;;;7.82;4.03;;;;;;;;;;5031676;28;20045;-79
2021/12/26 01:01:00;;;;;;;5.13;3.30;;;;;;;;;;5031610;28;20041;-79
2021/12/26 01:03:45;;;;;;;6.82;4.07;;;;;;;;;;5031869;28;20411;-79
2021/12/26 01:06:31;;;;;;;6.25;3.50;;;;;;;;;;5051306;28;20045;-78
2021/12/26 01:09:25;;;;;;;4.05;3.28;;;;;;;;;;5038239;28;20053;-78
2021/12/26 01:12:15;;;;;;;7.00;3.72;;;;;;;;;;5039551;28;20060;-80
2021/12/26 01:15:08;;;;;;;6.43;3.53;;;;;;;;;;5038806;28;20041;-78
2021/12/26 01:17:58;;;;;;;8.95;4.10;;;;;;;;;;5053207;28;20049;-78
2021/12/26 01:20:56;;;;;;;7.38;4.18;;;;;;;;;;5039525;28;20049;-79
2021/12/26 01:23:45;;;;;;;10.88;4.88;;;;;;;;;;5039602;23;20061;-79
2021/12/26 01:26:31;;;;;;;8.43;4.50;;;;;;;;;;5039804;28;20041;-78
2021/12/26 01:29:16;;;;;;;7.63;4.55;;;;;;;;;;5052921;28;20045;-80
2021/12/26 01:32:04;;;;;;;5.90;3.80;;;;;;;;;;5033791;28;20487;-79
2021/12/26 01:35:13;;;;;;;3.60;2.40;;;;;;;;;;5040062;28;20050;-79
2021/12/26 01:38:17;;;;;;;8.50;4.40;;;;;;;;;;5052932;28;20053;-79
2021/12/26 01:41:11;;;;;;;7.95;4.57;;;;;;;;;;5053622;28;20045;-79
2021/12/26 01:44:14;;;;;;;5.85;4.10;;;;;;;;;;5074157;28;20045;-77
2021/12/26 01:47:04;;;;;;;8.93;5.20;;;;;;;;;;5057592;28;20057;-78
2021/12/26 01:49:52;;;;;;;8.40;4.95;;;;;;;;;;5053057;28;20037;-79
2021/12/26 01:52:40;;;;;;;8.55;4.78;;;;;;;;;;5052200;28;20399;-79
2021/12/26 01:55:38;;;;;;;7.78;4.03;;;;;;;;;;5041508;28;20045;-79
2021/12/26 01:58:27;;;;;;;7.30;3.97;;;;;;;;;;5057343;28;20053;-79
2021/12/26 02:01:14;;;;;;;10.75;5.65;;;;;;;;;;5056675;28;20042;-78
2021/12/26 02:04:00;;;;;;;7.82;3.67;;;;;;;;;;5056908;28;20053;-79
2021/12/26 02:06:49;;;;;;;7.45;4.00;;;;;;;;;;5049688;23;20041;-79
2021/12/26 02:09:38;;;;;;;5.28;3.47;;;;;;;;;;5042128;28;20053;-79
2021/12/26 02:12:27;;;;;;;3.03;2.50;;;;;;;;;;5063112;28;20048;-79
2021/12/26 02:15:14;;;;;;;10.65;5.10;;;;;;;;;;5056088;28;20048;-79
2021/12/26 02:18:19;;;;;;;6.88;4.38;;;;;;;;;;5048758;28;20036;-79
2021/12/26 02:24:25;;;;;;;10.48;4.30;;;;;;;;;;5056706;28;20052;-79
2021/12/26 02:30:16;;;;;;;6.82;3.90;;;;;;;;;;5056095;28;20425;-79
2021/12/26 02:33:08;;;;;;;4.63;2.42;;;;;;;;;;5062502;28;20044;-79
2021/12/26 02:35:53;;;;;;;8.57;3.58;;;;;;;;;;5056350;28;20044;-80
2021/12/26 02:38:39;;;;;;;3.83;2.45;;;;;;;;;;5062312;28;20052;-79
2021/12/26 02:41:24;;;;;;;8.30;3.58;;;;;;;;;;5048227;28;20037;-78
2021/12/26 02:44:10;;;;;;;6.85;3.63;;;;;;;;;;5055756;28;20048;-79
2021/12/26 02:46:58;;;;;;;6.82;3.80;;;;;;;;;;5048320;28;20045;-78
2021/12/26 02:49:45;;;;;;;4.07;2.45;;;;;;;;;;5056201;28;20041;-78
2021/12/26 02:52:30;;;;;;;7.25;3.22;;;;;;;;;;5056193;28;20037;-79
2021/12/26 02:55:18;;;;;;;6.05;3.13;;;;;;;;;;5062482;28;20053;-79
2021/12/26 02:58:08;;;;;;;3.83;2.00;;;;;;;;;;5047334;28;20036;-79
2021/12/26 03:01:12;;;;;;;4.90;2.72;;;;;;;;;;5056619;28;20474;-78
2021/12/26 03:03:59;;;;;;;7.28;2.75;;;;;;;;;;5055759;28;20052;-78
2021/12/26 03:07:02;;;;;;;8.65;4.00;;;;;;;;;;5046576;28;20486;-78
2021/12/26 03:09:49;;;;;;;3.88;2.55;;;;;;;;;;5044079;28;20385;-77
2021/12/26 03:12:40;;;;;;;4.60;2.67;;;;;;;;;;5054352;28;20037;-79
2021/12/26 03:15:28;;;;;;;6.55;3.38;;;;;;;;;;5062128;28;20366;-79
2021/12/26 03:18:14;;;;;;;5.63;2.72;;;;;;;;;;5055895;28;20045;-77
2021/12/26 03:21:03;;;;;;;5.25;3.28;;;;;;;;;;5055774;28;20490;-78
2021/12/26 03:23:50;;;;;;;8.73;3.40;;;;;;;;;;5056196;28;20045;-78
2021/12/26 03:26:35;;;;;;;5.05;2.95;;;;;;;;;;5046681;28;20036;-78
2021/12/26 03:29:20;;;;;;;4.13;2.85;;;;;;;;;;5062830;28;20044;-77
2021/12/26 03:32:07;;;;;;;7.15;3.70;;;;;;;;;;5055779;28;20045;-78
2021/12/26 03:34:52;;;;;;;7.38;3.00;;;;;;;;;;5060969;28;20041;-78
2021/12/26 03:37:40;;;;;;;6.15;3.53;;;;;;;;;;5047657;28;20053;-79
2021/12/26 03:40:49;;;;;;;7.47;3.70;;;;;;;;;;5061379;28;20049;-78
2021/12/26 03:43:34;;;;;;;6.18;3.08;;;;;;;;;;5061618;28;20040;-78
2021/12/26 03:46:19;;;;;;;5.35;2.97;;;;;;;;;;5061201;28;20045;-78
2021/12/26 03:49:06;;;;;;;3.92;2.20;;;;;;;;;;5055306;28;20044;-78
2021/12/26 03:51:51;;;;;;;7.00;2.90;;;;;;;;;;5046887;28;20499;-79
2021/12/26 03:54:36;;;;;;;5.88;3.25;;;;;;;;;;5045885;28;20522;-79
2021/12/26 03:57:21;;;;;;;8.25;2.90;;;;;;;;;;5047584;28;20394;-79
2021/12/26 04:00:09;;;;;;;3.75;2.40;;;;;;;;;;5071020;28;20053;-76
2021/12/26 04:03:01;;;;;;;6.38;2.42;;;;;;;;;;5061225;28;20045;-78
2021/12/26 04:05:50;;;;;;;5.65;2.47;;;;;;;;;;5060991;28;20053;-78
2021/12/26 04:08:35;;;;;;;8.95;3.58;;;;;;;;;;5054609;28;20045;-78
2021/12/26 04:11:23;;;;;;;6.72;3.38;;;;;;;;;;5033197;28;20386;-79
2021/12/26 04:14:09;;;;;;;11.85;5.28;;;;;;;;;;5045973;28;20049;-78
2021/12/26 04:16:54;;;;;;;12.38;6.20;;;;;;;;;;5059353;28;20053;-80
2021/12/26 04:19:40;;;;;;;15.90;6.88;;;;;;;;;;5060826;28;20045;-77
2021/12/26 04:22:25;;;;;;;10.80;4.47;;;;;;;;;;5045860;28;20430;-78
2021/12/26 04:25:12;;;;;;;9.63;4.97;;;;;;;;;;5047017;28;20056;-79
2021/12/26 04:27:59;;;;;;;7.50;3.70;;;;;;;;;;5046776;28;20052;-80
2021/12/26 04:30:45;;;;;;;7.18;3.92;;;;;;;;;;5046039;28;20079;-80
2021/12/26 04:33:56;;;;;;;7.30;3.88;;;;;;;;;;5025228;23;20045;-80
2021/12/26 04:37:00;;;;;;;8.30;4.60;;;;;;;;;;5021131;28;20049;-79
2021/12/26 04:39:55;;;;;;;10.82;5.25;;;;;;;;;;5033305;28;20042;-82
2021/12/26 04:42:46;;;;;;;13.23;7.25;;;;;;;;;;5034312;28;20054;-79
2021/12/26 04:46:17;;;;;;;17.38;6.80;;;;;;;;;;5011558;28;20042;-79
2021/12/26 04:49:26;;;;;;;10.52;5.50;;;;;;;;;;5024862;28;20038;-76
2021/12/26 04:52:11;;;;;;;9.70;6.05;;;;;;;;;;5033360;28;20050;-78
2021/12/26 04:55:56;;;;;;;14.23;7.70;;;;;;;;;;5017962;28;20050;-83
2021/12/26 04:59:02;;;;;;;19.10;6.90;;;;;;;;;;5005787;28;20049;-79
2021/12/26 05:02:23;;;;;;;13.90;7.93;;;;;;;;;;5017335;28;20042;-78
2021/12/26 05:05:53;;;;;;;;;;;;;;;;;;5031578;28;20041;-78
2021/12/26 05:08:58;;;;;;;;;;;;;;;;;;;;;
2021/12/26 05:15:21;;;;;;;29.52;12.50;;;;;;;;;;5030980;28;20045;-78
2021/12/26 05:18:12;;;;;;;24.77;10.90;;;;;;;;;;5032296;28;20046;-80
2021/12/26 05:21:39;;;;;;;41.15;16.85;;;;;;;;;;5026888;28;20045;-78
2021/12/26 05:24:34;;;;;;;16.10;8.75;;;;;;;;;;5033920;28;20042;-77
2021/12/26 05:27:20;;;;;;;23.98;10.70;;;;;;;;;;5018854;28;20076;-78
2021/12/26 05:30:09;;;;;;;19.58;9.57;;;;;;;;;;5004119;28;20066;-76
2021/12/26 05:32:55;;;;;;;13.00;6.88;;;;;;;;;;5017269;28;20484;-79
2021/12/26 05:35:42;;;;;;;15.25;6.25;;;;;;;;;;5032205;28;20049;-78
2021/12/26 05:38:28;;;;;;;10.90;5.10;;;;;;;;;;5018256;28;20046;-78
2021/12/26 05:41:14;;;;;;;24.33;5.22;;;;;;;;;;5033888;28;20049;-79
2021/12/26 05:44:10;;;;;;;9.10;4.78;;;;;;;;;;5032487;28;20436;-79
2021/12/26 05:46:56;;;;;;;12.20;6.32;;;;;;;;;;5019506;28;20042;-79
2021/12/26 05:49:44;;;;;;;17.80;7.90;;;;;;;;;;5033257;28;20046;-79
2021/12/26 05:52:34;;;;;;;19.98;11.52;;;;;;;;;;5019403;28;20038;-79
2021/12/26 05:55:28;;;;;;;22.48;12.23;;;;;;;;;;5019330;28;20034;-79
2021/12/26 05:58:13;;;;;;;26.88;12.00;;;;;;;;;;5032605;28;20042;-80
2021/12/26 06:00:58;;;;;;;18.48;10.05;;;;;;;;;;5033355;28;20049;-80
2021/12/26 06:03:44;;;;;;;20.02;10.52;;;;;;;;;;5006018;28;20041;-79
2021/12/26 06:06:30;;;;;;;22.77;11.18;;;;;;;;;;5018408;28;20072;-79
2021/12/26 06:09:15;;;;;;;23.45;11.25;;;;;;;;;;5019691;28;20046;-80
2021/12/26 06:12:03;;;;;;;29.05;17.13;;;;;;;;;;5021737;28;20050;-80
2021/12/26 06:14:50;;;;;;;29.10;15.63;;;;;;;;;;5040962;28;20043;-79
2021/12/26 06:17:35;;;;;;;28.27;16.00;;;;;;;;;;5041453;28;20054;-78
2021/12/26 06:20:39;;;;;;;40.00;21.83;;;;;;;;;;5024624;28;20042;-80
2021/12/26 06:23:53;;;;;;;34.72;20.65;;;;;;;;;;5024510;28;20144;-78
2021/12/26 06:26:58;;;;;;;44.38;23.65;;;;;;;;;;5024555;28;20042;-78
2021/12/26 06:30:05;;;;;;;64.07;26.77;;;;;;;;;;5020175;28;20049;-79
2021/12/26 06:33:26;;;;;;;51.95;25.55;;;;;;;;;;4974077;28;20440;-79
2021/12/26 06:36:29;;;;;;;50.15;24.58;;;;;;;;;;5023659;28;20492;-79
2021/12/26 06:39:44;;;;;;;52.53;27.25;;;;;;;;;;5029451;28;20379;-79
2021/12/26 06:43:06;;;;;;;70.50;27.88;;;;;;;;;;4962602;28;20047;-79
2021/12/26 06:46:10;;;;;;;;;;;;;;;;;;5016973;28;20054;-78
2021/12/26 06:49:21;;;;;;;53.08;25.25;;;;;;;;;;5020741;28;19917;-79
2021/12/26 06:52:07;;;;;;;51.45;26.48;;;;;;;;;;5036127;28;20049;-78
2021/12/26 06:54:52;;;;;;;67.55;35.00;;;;;;;;;;5035141;28;20395;-78
2021/12/26 06:57:40;;;;;;;87.15;41.75;;;;;;;;;;5022101;28;20054;-78
2021/12/26 07:00:24;;;;;;;85.18;44.40;;;;;;;;;;5008297;28;20433;-79
2021/12/26 07:03:11;;;;;;;107.63;48.88;;;;;;;;;;5035011;28;20042;-79
2021/12/26 07:05:56;;;;;;;113.38;52.58;;;;;;;;;;5035852;28;20414;-79
2021/12/26 07:08:44;;;;;;;103.55;50.92;;;;;;;;;;5021639;28;20054;-79
2021/12/26 07:11:31;;;;;;;80.60;38.45;;;;;;;;;;5035524;28;20477;-78
2021/12/26 07:14:16;;;;;;;75.40;37.92;;;;;;;;;;5021819;28;20050;-78
2021/12/26 07:17:02;;;;;;;105.97;48.28;;;;;;;;;;5020917;28;20050;-79
2021/12/26 07:19:48;;;;;;;107.40;49.28;;;;;;;;;;5022029;28;20046;-79
2021/12/26 07:22:56;;;;;;;96.70;49.47;;;;;;;;;;5021559;28;20050;-79
2021/12/26 07:25:42;;;;;;;81.15;41.05;;;;;;;;;;5035362;28;20053;-79
2021/12/26 07:28:28;;;;;;;73.88;39.17;;;;;;;;;;5007638;28;20057;-79
2021/12/26 07:31:25;;;;;;;79.43;40.80;;;;;;;;;;5034952;28;20042;-79
2021/12/26 08:01:37;;;;;;;158.60;87.95;;;;;;;;;;4960234;28;20054;-78
2021/12/26 08:12:22;;;;;;;180.73;97.53;;;;;;;;;;4973381;28;20051;-79
2021/12/26 08:41:26;;;;;;;167.35;86.25;;;;;;;;;;4914576;29;20048;-80
2021/12/26 08:44:16;;;;;;;172.80;86.68;;;;;;;;;;4904081;29;20495;-79
2021/12/26 08:47:42;;;;;;;164.15;84.00;;;;;;;;;;4931846;29;20060;-79
2021/12/26 08:50:49;;;;;;;149.73;83.40;;;;;;;;;;4934442;29;20456;-77
2021/12/26 08:53:35;;;;;;;171.80;93.60;;;;;;;;;;4934398;29;20043;-77
2021/12/26 08:56:21;;;;;;;168.90;91.57;;;;;;;;;;4939988;29;20055;-77
2021/12/26 08:59:07;;;;;;;181.93;102.45;;;;;;;;;;4963051;28;20392;-78
2021/12/26 09:01:54;;;;;;;207.00;109.65;;;;;;;;;;5014150;28;20050;-76
2021/12/26 09:04:40;;;;;;;195.48;106.75;;;;;;;;;;5013373;28;20373;-76
2021/12/26 09:07:28;;;;;;;168.23;92.05;;;;;;;;;;5013874;28;20054;-77
2021/12/26 09:10:14;;;;;;;122.72;64.70;;;;;;;;;;5013410;28;20514;-79
2021/12/26 09:13:01;;;;;;;93.75;48.65;;;;;;;;;;5014299;28;20051;-77
2021/12/26 09:15:47;;;;;;;101.13;51.92;;;;;;;;;;5013773;28;20041;-78
2021/12/26 09:18:32;;;;;;;90.32;45.28;;;;;;;;;;5013380;28;20046;-77
2021/12/26 09:21:18;;;;;;;80.57;41.13;;;;;;;;;;5013633;28;20368;-77
2021/12/26 09:24:04;;;;;;;53.42;26.80;;;;;;;;;;5013039;28;20038;-77
2021/12/26 09:26:51;;;;;;;49.13;29.30;;;;;;;;;;5012655;28;20490;-77
2021/12/26 09:29:37;;;;;;;50.85;29.10;;;;;;;;;;5013552;28;20046;-76
2021/12/26 09:32:22;;;;;;;53.28;28.73;;;;;;;;;;5013147;28;20046;-75
2021/12/26 09:35:08;;;;;;;65.68;36.28;;;;;;;;;;5013007;28;20042;-75
2021/12/26 09:37:53;;;;;;;52.00;29.00;;;;;;;;;;5013074;28;20054;-76
2021/12/26 09:40:39;;;;;;;56.25;31.25;;;;;;;;;;5013444;28;20050;-76
2021/12/26 09:43:24;;;;;;;54.88;29.27;;;;;;;;;;5021190;28;20041;-77
2021/12/26 09:46:10;;;;;;;63.63;34.67;;;;;;;;;;5032631;28;20038;-76
2021/12/26 09:48:56;;;;;;;68.47;38.45;;;;;;;;;;5033025;28;20042;-75
2021/12/26 09:51:41;;;;;;;55.90;29.23;;;;;;;;;;5032974;28;20490;-76
2021/12/26 09:54:27;;;;;;;50.28;30.65;;;;;;;;;;5032847;28;20049;-77
2021/12/26 09:57:12;;;;;;;60.10;31.95;;;;;;;;;;5033265;28;20065;-74
2021/12/26 09:59:58;;;;;;;72.25;36.83;;;;;;;;;;5032417;28;20050;-75
2021/12/26 10:02:43;;;;;;;61.17;33.22;;;;;;;;;;5032895;28;20049;-75
2021/12/26 10:05:29;;;;;;;75.47;41.45;;;;;;;;;;5039433;28;20398;-75
2021/12/26 10:08:14;;;;;;;82.60;39.90;;;;;;;;;;5037716;28;20396;-76
2021/12/26 10:11:18;;;;;;;72.88;36.47;;;;;;;;;;5039729;28;20037;-76
2021/12/26 10:14:14;;;;;;;81.22;40.00;;;;;;;;;;5031917;28;20049;-76
2021/12/26 10:17:03;;;;;;;60.25;34.35;;;;;;;;;;5035567;28;20046;-75
2021/12/26 10:19:48;;;;;;;51.90;30.65;;;;;;;;;;5035610;28;20515;-77
2021/12/26 10:22:34;;;;;;;45.22;27.42;;;;;;;;;;5021436;28;20049;-76
2021/12/26 10:25:22;;;;;;;49.83;26.05;;;;;;;;;;5037368;28;20053;-75
2021/12/26 10:28:12;;;;;;;63.15;33.63;;;;;;;;;;5035915;28;20049;-75
2021/12/26 10:31:09;;;;;;;55.70;31.73;;;;;;;;;;5036620;28;20050;-76
2021/12/26 10:33:55;;;;;;;51.40;28.52;;;;;;;;;;5041852;28;20041;-76
2021/12/26 10:36:47;;;;;;;38.72;24.30;;;;;;;;;;5035814;28;20049;-77
2021/12/26 10:39:38;;;;;;;50.50;27.50;;;;;;;;;;5042362;28;20045;-76
2021/12/26 10:42:28;;;;;;;38.38;23.33;;;;;;;;;;5042274;28;20053;-76
2021/12/26 10:45:18;;;;;;;48.90;24.80;;;;;;;;;;5016825;28;20038;-75
2021/12/26 10:48:06;;;;;;;42.47;24.80;;;;;;;;;;5016794;28;20058;-78
2021/12/26 10:50:51;;;;;;;42.38;25.70;;;;;;;;;;5021156;28;20053;-76
2021/12/26 10:53:38;;;;;;;44.08;25.52;;;;;;;;;;5015826;28;20042;-76
2021/12/26 10:56:23;;;;;;;42.40;23.67;;;;;;;;;;5015125;28;20049;-76
2021/12/26 10:59:19;;;;;;;44.45;22.90;;;;;;;;;;5016148;28;20046;-77
2021/12/26 11:02:05;;;;;;;55.00;23.13;;;;;;;;;;5022580;28;20088;-75
2021/12/26 11:04:58;;;;;;;50.30;26.08;;;;;;;;;;5015750;28;20045;-77
2021/12/26 11:07:50;;;;;;;50.42;25.05;;;;;;;;;;5015738;28;20045;-77
2021/12/26 11:10:47;;;;;;;38.42;21.65;;;;;;;;;;5015484;28;20129;-76
2021/12/26 11:13:33;;;;;;;44.60;23.63;;;;;;;;;;5015854;28;20395;-77
2021/12/26 11:16:18;;;;;;;49.97;26.23;;;;;;;;;;5015753;28;20046;-76
2021/12/26 11:19:04;;;;;;;43.78;23.20;;;;;;;;;;5015818;28;20041;-76
2021/12/26 11:21:50;;;;;;;47.03;24.80;;;;;;;;;;5015892;28;20388;-75
2021/12/26 11:24:36;;;;;;;70.85;32.63;;;;;;;;;;5015402;28;20049;-77
2021/12/26 11:27:21;;;;;;;75.53;35.55;;;;;;;;;;5014831;28;20042;-76
2021/12/26 11:30:09;;;;;;;63.67;31.88;;;;;;;;;;5015691;28;20046;-76
2021/12/26 11:32:54;;;;;;;38.88;21.02;;;;;;;;;;5015125;28;20042;-76
2021/12/26 11:35:40;;;;;;;55.58;27.75;;;;;;;;;;5015848;28;20050;-76
2021/12/26 11:38:28;;;;;;;55.70;29.17;;;;;;;;;;5015333;28;20042;-76
2021/12/26 11:42:12;;;;;;;46.15;26.00;;;;;;;;;;5015353;28;20054;-76
2021/12/26 11:45:28;;;;;;;59.50;28.98;;;;;;;;;;5015080;28;20054;-76
2021/12/26 11:49:08;;;;;;;50.80;27.17;;;;;;;;;;5021474;28;20483;-76
2021/12/26 11:52:31;;;;;;;56.72;28.98;;;;;;;;;;5015420;28;20042;-75
2021/12/26 11:55:49;;;;;;;39.63;23.00;;;;;;;;;;5014903;28;20050;-76
2021/12/26 11:59:05;;;;;;;51.28;27.60;;;;;;;;;;5019215;28;20046;-77
2021/12/26 12:01:49;;;;;;;47.10;27.40;;;;;;;;;;5012992;28;20038;-77
2021/12/26 12:04:36;;;;;;;48.88;27.30;;;;;;;;;;5014592;28;20046;-75
2021/12/26 12:07:21;;;;;;;67.78;37.15;;;;;;;;;;5014675;28;20038;-79
2021/12/26 12:10:32;;;;;;;61.35;32.85;;;;;;;;;;5014707;28;20046;-77
2021/12/26 12:13:27;;;;;;;68.88;37.28;;;;;;;;;;5013149;28;20053;-78
2021/12/26 12:16:24;;;;;;;60.90;38.00;;;;;;;;;;5014176;28;20515;-76
2021/12/26 12:19:10;;;;;;;54.42;30.77;;;;;;;;;;5014713;28;20053;-78
2021/12/26 12:22:04;;;;;;;61.60;33.60;;;;;;;;;;5014372;28;20503;-78
2021/12/26 12:24:51;;;;;;;77.60;37.17;;;;;;;;;;5014068;28;20399;-79
2021/12/26 12:27:56;;;;;;;80.78;40.95;;;;;;;;;;5013787;28;20275;-78
2021/12/26 12:30:54;;;;;;;79.18;42.65;;;;;;;;;;5008716;28;20110;-78
2021/12/26 12:33:40;;;;;;;77.03;40.97;;;;;;;;;;5014290;28;20049;-78
2021/12/26 12:36:28;;;;;;;97.90;49.22;;;;;;;;;;5013432;28;20049;-77
2021/12/26 12:39:19;;;;;;;126.35;61.78;;;;;;;;;;5013665;28;20045;-77
2021/12/26 12:42:15;;;;;;;95.45;51.33;;;;;;;;;;5014164;28;20058;-77
2021/12/26 12:45:02;;;;;;;96.32;49.67;;;;;;;;;;5013614;28;20046;-79
2021/12/26 12:47:47;;;;;;;88.13;48.28;;;;;;;;;;5014220;28;20045;-77
2021/12/26 12:50:33;;;;;;;93.68;49.65;;;;;;;;;;5014338;28;20484;-77
2021/12/26 12:53:48;;;;;;;77.30;42.80;;;;;;;;;;5014360;28;20042;-76
2021/12/26 12:56:33;;;;;;;81.17;46.37;;;;;;;;;;5014551;28;20038;-76
2021/12/26 12:59:20;;;;;;;76.00;42.17;;;;;;;;;;5014104;28;20037;-75
2021/12/26 13:02:27;;;;;;;78.85;43.30;;;;;;;;;;5014081;28;20046;-77
2021/12/26 13:05:12;;;;;;;95.22;46.95;;;;;;;;;;5031644;28;20054;-75
2021/12/26 13:08:00;;;;;;;93.28;52.15;;;;;;;;;;5016571;28;20380;-75
2021/12/26 13:10:51;;;;;;;107.68;54.80;;;;;;;;;;5013086;28;20041;-78
2021/12/26 13:13:44;;;;;;;115.57;56.97;;;;;;;;;;5013183;28;20046;-77
2021/12/26 13:16:30;;;;;;;93.35;51.67;;;;;;;;;;5012953;28;20042;-76
2021/12/26 13:19:16;;;;;;;75.38;44.22;;;;;;;;;;5011389;28;20042;-78
2021/12/26 13:22:02;;;;;;;75.45;42.17;;;;;;;;;;5013165;28;20054;-76
2021/12/26 13:24:48;;;;;;;68.43;41.35;;;;;;;;;;5013168;28;20049;-76
2021/12/26 13:27:34;;;;;;;94.80;45.33;;;;;;;;;;5012591;28;20049;-78
2021/12/26 13:30:27;;;;;;;129.98;55.97;;;;;;;;;;5013813;28;20053;-76
2021/12/26 13:33:18;;;;;;;131.30;52.28;;;;;;;;;;5012948;28;20046;-75
2021/12/26 13:36:19;;;;;;;101.57;49.35;;;;;;;;;;5013006;28;20047;-76
2021/12/26 13:39:06;;;;;;;105.72;47.53;;;;;;;;;;5013119;28;20491;-77
2021/12/26 13:41:53;;;;;;;84.28;43.97;;;;;;;;;;5013083;28;20396;-76
2021/12/26 13:44:43;;;;;;;85.18;44.30;;;;;;;;;;5024127;28;20045;-75
2021/12/26 13:47:37;;;;;;;74.07;41.55;;;;;;;;;;5012699;28;20038;-76
2021/12/26 13:50:24;;;;;;;90.70;49.97;;;;;;;;;;5016755;28;20058;-77
2021/12/26 13:53:10;;;;;;;118.45;66.63;;;;;;;;;;5017362;28;20042;-77
2021/12/26 13:55:58;;;;;;;86.95;50.03;;;;;;;;;;5016911;28;20403;-76
2021/12/26 13:58:44;;;;;;;84.93;45.85;;;;;;;;;;5016884;28;20066;-76
2021/12/26 14:01:29;;;;;;;181.55;106.63;;;;;;;;;;5016833;28;20041;-76
2021/12/26 14:04:15;;;;;;;137.02;82.25;;;;;;;;;;5030456;28;20498;-76
2021/12/26 14:07:07;;;;;;;122.60;78.45;;;;;;;;;;5015946;28;20042;-78
2021/12/26 14:09:56;;;;;;;93.38;52.60;;;;;;;;;;5016771;28;20045;-76
2021/12/26 14:12:49;;;;;;;114.88;65.50;;;;;;;;;;5017059;28;20046;-76
2021/12/26 14:15:44;;;;;;;114.95;64.03;;;;;;;;;;5016578;28;20045;-76
2021/12/26 14:18:34;;;;;;;103.43;54.13;;;;;;;;;;5017436;28;20034;-76
2021/12/26 14:21:21;;;;;;;153.73;83.90;;;;;;;;;;5016586;28;20042;-77
2021/12/26 14:24:07;;;;;;;154.73;86.13;;;;;;;;;;5016008;28;20400;-78
2021/12/26 14:26:53;;;;;;;113.50;67.50;;;;;;;;;;5017147;28;20208;-77
2021/12/26 14:29:38;;;;;;;151.43;84.32;;;;;;;;;;5016585;28;20042;-76
2021/12/26 14:32:24;;;;;;;121.15;60.67;;;;;;;;;;5016790;28;20049;-76
2021/12/26 14:35:13;;;;;;;121.22;61.38;;;;;;;;;;5016993;28;20391;-76
2021/12/26 14:38:11;;;;;;;136.27;74.20;;;;;;;;;;5015260;28;20045;-75
2021/12/26 14:41:00;;;;;;;216.85;123.13;;;;;;;;;;5016521;28;20033;-75
2021/12/26 14:43:46;;;;;;;229.55;135.40;;;;;;;;;;5027404;28;20053;-77
2021/12/26 14:46:32;;;;;;;186.77;104.93;;;;;;;;;;5035765;28;20053;-77
2021/12/26 14:49:20;;;;;;;210.80;109.32;;;;;;;;;;5035950;28;20045;-77
2021/12/26 14:52:07;;;;;;;237.77;129.57;;;;;;;;;;5036012;28;20053;-78
2021/12/26 14:54:58;;;;;;;238.13;129.68;;;;;;;;;;5036367;28;20049;-77
2021/12/26 14:57:44;;;;;;;261.38;138.75;;;;;;;;;;5035454;28;20041;-76
2021/12/26 15:00:30;;;;;;;239.70;125.75;;;;;;;;;;5035149;28;20479;-77
2021/12/26 15:03:18;;;;;;;288.05;152.18;;;;;;;;;;5035719;28;20037;-76
2021/12/26 15:06:11;;;;;;;292.60;167.07;;;;;;;;;;5035619;28;20046;-77
2021/12/26 15:08:57;;;;;;;295.17;162.10;;;;;;;;;;5035968;28;20037;-76
2021/12/26 15:11:43;;;;;;;271.42;151.07;;;;;;;;;;5042643;28;20045;-77
2021/12/26 15:14:30;;;;;;;240.95;137.15;;;;;;;;;;5042101;28;20041;-77
2021/12/26 15:17:17;;;;;;;253.65;141.63;;;;;;;;;;5035778;28;20049;-76
2021/12/26 15:20:41;;;;;;;264.23;155.43;;;;;;;;;;5057130;28;20050;-77
2021/12/26 15:23:37;;;;;;;291.23;174.93;;;;;;;;;;4954783;29;20047;-76
2021/12/26 15:26:22;;;;;;;266.30;158.13;;;;;;;;;;4955545;29;20047;-75
2021/12/26 15:29:07;;;;;;;262.10;159.38;;;;;;;;;;5030337;28;20478;-76
2021/12/26 15:31:53;;;;;;;254.98;145.15;;;;;;;;;;5035476;28;20541;-77
2021/12/26 15:34:41;;;;;;;292.42;170.25;;;;;;;;;;5035107;28;20045;-77
2021/12/26 15:37:26;;;;;;;301.02;175.32;;;;;;;;;;5034890;28;20045;-76
2021/12/26 15:40:12;;;;;;;273.23;162.07;;;;;;;;;;5041216;28;20045;-77
2021/12/26 15:42:57;;;;;;;290.75;172.98;;;;;;;;;;5024469;28;20049;-80
2021/12/26 15:45:43;;;;;;;280.55;173.68;;;;;;;;;;5035685;28;20038;-82
2021/12/26 15:48:30;;;;;;;276.70;169.73;;;;;;;;;;5034750;28;20398;-83
2021/12/26 15:51:16;;;;;;;286.58;171.75;;;;;;;;;;5035050;28;20053;-81
2021/12/26 15:54:03;;;;;;;268.08;154.70;;;;;;;;;;5035407;28;20042;-80
2021/12/26 15:56:49;;;;;;;290.17;167.55;;;;;;;;;;5034201;28;20045;-79
2021/12/26 15:59:35;;;;;;;409.08;278.90;;;;;;;;;;5034855;28;20045;-80
2021/12/26 16:02:22;;;;;;;348.90;216.02;;;;;;;;;;5041246;28;20042;-81
2021/12/26 16:05:08;;;;;;;313.35;194.57;;;;;;;;;;5034890;28;20053;-82
2021/12/26 16:07:54;;;;;;;350.33;216.65;;;;;;;;;;5035259;28;20057;-83
2021/12/26 16:10:42;;;;;;;377.98;229.50;;;;;;;;;;5034550;28;20045;-81
2021/12/26 16:13:29;;;;;;;341.70;213.82;;;;;;;;;;5033949;28;20049;-80
2021/12/26 16:16:14;;;;;;;336.65;209.77;;;;;;;;;;5034772;28;20045;-80
2021/12/26 16:19:00;;;;;;;341.45;214.48;;;;;;;;;;5040361;28;20038;-80
2021/12/26 16:21:45;;;;;;;328.25;210.38;;;;;;;;;;5034842;28;20483;-79
2021/12/26 16:24:31;;;;;;;350.98;217.95;;;;;;;;;;5034082;28;20053;-79
2021/12/26 16:27:17;;;;;;;419.88;266.80;;;;;;;;;;5034505;28;20486;-79
2021/12/26 16:30:03;;;;;;;451.77;296.38;;;;;;;;;;5034333;28;20153;-79
2021/12/26 16:32:49;;;;;;;1299.43;808.67;;;;;;;;;;5033456;28;20049;-82
2021/12/26 16:35:35;;;;;;;756.95;522.50;;;;;;;;;;5034492;28;20049;-81
2021/12/26 16:38:22;;;;;;;564.13;398.90;;;;;;;;;;5033602;28;20045;-82
2021/12/26 16:41:09;;;;;;;430.75;289.70;;;;;;;;;;5039571;28;20479;-79
2021/12/26 16:43:54;;;;;;;428.65;291.77;;;;;;;;;;5033984;28;20471;-80
2021/12/26 16:46:39;;;;;;;412.35;277.95;;;;;;;;;;5033066;28;20079;-81
2021/12/26 16:49:25;;;;;;;334.70;222.45;;;;;;;;;;5033764;28;20483;-80
2021/12/26 16:52:11;;;;;;;318.55;208.70;;;;;;;;;;5033446;28;20045;-82
2021/12/26 16:54:57;;;;;;;337.83;212.57;;;;;;;;;;5033714;28;20049;-81
2021/12/26 16:57:42;;;;;;;352.17;227.73;;;;;;;;;;5033377;28;20038;-81
2021/12/26 17:00:27;;;;;;;355.80;235.30;;;;;;;;;;5033194;28;20391;-83
2021/12/26 17:03:13;;;;;;;304.02;186.20;;;;;;;;;;5034005;28;20057;-83
2021/12/26 17:05:59;;;;;;;262.58;161.45;;;;;;;;;;5039493;28;20053;-78
2021/12/26 17:08:46;;;;;;;227.50;137.93;;;;;;;;;;5033414;28;20045;-81
2021/12/26 17:11:31;;;;;;;211.77;132.45;;;;;;;;;;5018497;28;20402;-80
2021/12/26 17:14:16;;;;;;;204.77;124.68;;;;;;;;;;5033160;28;20041;-83
2021/12/26 17:17:03;;;;;;;222.32;130.02;;;;;;;;;;5033702;28;20049;-80
2021/12/26 17:19:48;;;;;;;204.80;121.95;;;;;;;;;;5033934;28;20049;-81
2021/12/26 17:22:37;;;;;;;202.75;123.53;;;;;;;;;;5033245;28;20616;-79
2021/12/26 17:25:23;;;;;;;221.48;135.07;;;;;;;;;;5032775;28;20402;-79
2021/12/26 17:28:08;;;;;;;407.92;274.15;;;;;;;;;;5032863;28;20042;-81
2021/12/26 17:30:54;;;;;;;436.05;282.30;;;;;;;;;;5032975;28;20053;-81
2021/12/26 17:33:40;;;;;;;421.15;269.13;;;;;;;;;;5033581;28;20395;-81
2021/12/26 17:36:27;;;;;;;426.42;276.70;;;;;;;;;;5046674;28;20046;-80
2021/12/26 17:39:13;;;;;;;404.02;254.73;;;;;;;;;;5041629;28;20045;-79
2021/12/26 17:41:58;;;;;;;418.85;269.60;;;;;;;;;;5033181;28;20045;-81
2021/12/26 17:44:46;;;;;;;418.90;277.50;;;;;;;;;;5032585;28;20486;-83